Lounsberry, New York
Current Conditions -  °F | °C
As of 2:53 AM on Monday 24 Nov 2014 (Local Time) from KBGM Reporting Station
Light Rain Light Rain  
Wind Chill: 39°   Ceiling: 700
Heat Index: 47°   Visibility: 6mi
Dew Point: 46°   Wind: 23mph
Humidity: 97%   Direction: 150°SSE
Pressure: 29.62"   Gusts: 31mph
Location:  42.0389°N, 76.3138°W
Report Text: KBGM 240753Z AUTO 15020G27KT 6SM -RA BR OVC007 08/08 A2962 RMK AO2 PK WND 14027/0751 CIG 003V010 PRESFR SLP036 P0005 T00830078
Loading
Personal Weather Stations






























Interactive Weather Map New forecast layout! Learn more

10-Day Weather Forecast

Advertisements
Track Severe Weather on mobile